Time;durP1;ratioP1;P1;durP2;ratioP2;P2;SDS_P1;SDS_P2;PMS_P1;PMS_P2;Temp;Humidity;BMP_temperature;BMP_pressure;BME280_temperature;BME280_humidity;BME280_pressure;Samples;Min_cycle;Max_cycle;Signal;HPM_P1;HPM_P2
2022/06/04 00:01:54;;;;;;;5.53;5.03;;;19.90;90.50;20.40;96524.00;;;;5053529;28;20201;-87
2022/06/04 00:04:21;;;;;;;5.17;4.67;;;19.90;90.50;20.30;96520.00;;;;5053190;28;20209;-87
2022/06/04 00:06:49;;;;;;;4.90;4.47;;;19.90;90.70;20.30;96526.00;;;;5053118;28;20193;-86
2022/06/04 00:09:16;;;;;;;4.20;3.90;;;19.80;90.70;20.30;96526.00;;;;5053050;28;20269;-85
2022/06/04 00:17:18;;;;;;;5.33;4.60;;;19.80;90.60;20.20;96521.00;;;;5052022;28;20195;-86
2022/06/04 00:19:47;;;;;;;4.20;3.90;;;19.80;90.50;20.20;96531.00;;;;5053340;28;20217;-85
2022/06/04 00:22:14;;;;;;;4.77;4.37;;;19.70;90.40;20.20;96526.00;;;;5053793;28;20718;-86
2022/06/04 00:24:43;;;;;;;4.60;4.20;;;19.70;90.40;20.20;96525.00;;;;5053079;28;20209;-86
2022/06/04 00:27:17;;;;;;;4.93;4.40;;;19.70;90.40;20.20;96522.00;;;;5052700;28;20208;-85
2022/06/04 00:29:45;;;;;;;4.97;4.57;;;19.60;90.30;20.20;96525.00;;;;5053743;28;20276;-86
2022/06/04 00:32:14;;;;;;;4.47;4.00;;;19.60;90.40;20.10;96524.00;;;;5053314;28;20677;-86
2022/06/04 00:34:42;;;;;;;5.17;4.17;;;19.60;90.50;20.10;96539.00;;;;5053323;28;20201;-86
2022/06/04 00:37:09;;;;;;;3.77;3.47;;;19.60;90.60;20.10;96534.00;;;;5112014;22;20249;-86
2022/06/04 00:39:37;;;;;;;4.00;3.70;;;19.50;90.50;20.10;96532.00;;;;5081979;28;20573;-86
2022/06/04 00:42:10;;;;;;;3.53;3.30;;;19.50;90.50;20.10;96520.00;;;;5072941;28;20653;-86
2022/06/04 00:45:40;;;;;;;3.83;3.53;;;19.50;90.50;20.00;96514.00;;;;5082811;28;20191;-86
2022/06/04 00:48:10;;;;;;;3.93;3.33;;;19.50;90.50;20.00;96520.00;;;;5104256;22;20199;-84
2022/06/04 00:50:42;;;;;;;3.57;3.37;;;19.50;90.40;20.00;96513.00;;;;5035755;28;20616;-84
2022/06/04 00:53:14;;;;;;;3.83;3.53;;;19.40;90.30;19.90;96515.00;;;;5051720;28;20201;-84
2022/06/04 00:55:53;;;;;;;3.70;3.40;;;19.40;90.30;19.90;96516.00;;;;5051946;28;20196;-83
2022/06/04 00:58:42;;;;;;;4.87;4.47;;;19.40;90.40;19.90;96510.00;;;;5051161;28;20224;-84
2022/06/04 01:01:21;;;;;;;3.67;3.37;;;19.30;90.40;19.90;96510.00;;;;5052359;28;20200;-83
2022/06/04 01:04:06;;;;;;;4.00;3.70;;;19.30;90.40;19.80;96515.00;;;;5047656;28;20208;-83
2022/06/04 01:06:48;;;;;;;4.20;3.90;;;19.30;90.40;19.80;96517.00;;;;5051627;28;20233;-84
2022/06/04 01:09:41;;;;;;;4.40;3.80;;;19.30;90.40;19.80;96518.00;;;;5047551;28;20220;-83
2022/06/04 01:12:46;;;;;;;6.13;4.00;;;19.20;90.30;19.80;96523.00;;;;5034005;28;20213;-83
2022/06/04 01:15:30;;;;;;;3.80;3.50;;;19.20;90.40;19.70;96517.00;;;;5045592;28;20605;-83
2022/06/04 01:18:13;;;;;;;3.93;3.53;;;19.20;90.40;19.70;96523.00;;;;5045869;28;20219;-83
2022/06/04 01:20:56;;;;;;;3.67;3.37;;;19.20;90.30;19.70;96524.00;;;;5031790;28;20181;-83
2022/06/04 01:24:14;;;;;;;3.90;3.60;;;19.10;90.30;19.60;96528.00;;;;5030639;28;20201;-80
2022/06/04 01:27:23;;;;;;;3.67;3.37;;;19.10;90.20;19.60;96533.00;;;;5050857;28;20205;-81
2022/06/04 01:30:01;;;;;;;3.43;3.13;;;19.10;90.20;19.60;96524.00;;;;4952000;29;20856;-82
2022/06/04 01:32:36;;;;;;;3.80;3.50;;;19.00;90.20;19.50;96530.00;;;;5021110;28;20256;-81
2022/06/04 01:35:17;;;;;;;4.40;4.00;;;19.00;90.20;19.50;96526.00;;;;5051201;28;20238;-81
2022/06/04 01:37:54;;;;;;;5.17;4.33;;;18.90;90.20;19.50;96539.00;;;;5033702;28;20237;-81
2022/06/04 01:43:24;;;;;;;4.17;3.73;;;18.90;90.30;19.40;96528.00;;;;5031137;28;20200;-81
2022/06/04 01:45:55;;;;;;;8.87;4.63;;;18.90;90.30;19.40;96539.00;;;;5030959;28;20211;-82
2022/06/04 01:48:27;;;;;;;7.53;4.97;;;18.80;90.40;19.40;96537.00;;;;5030627;28;20237;-81
2022/06/04 01:51:04;;;;;;;10.53;4.63;;;18.80;90.40;19.40;96531.00;;;;5032938;28;20662;-82
2022/06/04 01:53:39;;;;;;;7.77;4.90;;;18.80;90.40;19.40;96536.00;;;;5031405;28;20255;-81
2022/06/04 01:56:12;;;;;;;11.87;4.80;;;18.80;90.40;19.40;96519.00;;;;5046786;28;20223;-82
2022/06/04 01:58:48;;;;;;;5.63;4.33;;;18.80;90.50;19.40;96515.00;;;;5050195;28;20673;-82
2022/06/04 02:01:23;;;;;;;9.53;4.50;;;18.80;90.60;19.40;96513.00;;;;5037084;28;20197;-82
2022/06/04 02:04:08;;;;;;;8.10;4.30;;;18.80;90.60;19.40;96522.00;;;;5042671;28;20220;-82
2022/06/04 02:06:45;;;;;;;7.20;3.70;;;18.80;90.70;19.40;96519.00;;;;5051153;28;20258;-82
2022/06/04 02:09:17;;;;;;;6.67;4.30;;;18.80;90.70;19.40;96527.00;;;;5051241;28;20220;-82
2022/06/04 02:11:56;;;;;;;6.30;4.67;;;18.80;90.70;19.40;96520.00;;;;5051035;28;20243;-82
2022/06/04 02:14:25;;;;;;;6.90;4.50;;;18.80;90.70;19.40;96515.00;;;;5030734;28;20208;-82
2022/06/04 02:17:01;;;;;;;6.03;4.57;;;18.80;90.80;19.40;96513.00;;;;5031212;28;20205;-82
2022/06/04 02:19:28;;;;;;;5.27;4.83;;;18.80;90.80;19.50;96509.00;;;;5051690;28;20188;-82
2022/06/04 02:21:56;;;;;;;5.17;4.67;;;18.80;90.80;19.50;96516.00;;;;5050698;28;20220;-82
2022/06/04 02:24:24;;;;;;;4.67;4.27;;;18.80;90.90;19.50;96508.00;;;;5045435;28;20194;-82
2022/06/04 02:26:52;;;;;;;4.57;4.17;;;18.80;90.90;19.50;96509.00;;;;5050370;28;20598;-81
2022/06/04 02:29:20;;;;;;;5.67;4.40;;;18.80;90.90;19.50;96503.00;;;;5033219;28;20883;-81
2022/06/04 02:32:00;;;;;;;4.40;4.00;;;18.90;90.90;19.50;96501.00;;;;5038188;28;20250;-81
2022/06/04 02:34:35;;;;;;;5.60;4.00;;;18.90;91.00;19.50;96505.00;;;;5053863;28;20204;-82
2022/06/04 02:37:10;;;;;;;4.97;3.13;;;18.90;91.00;19.50;96501.00;;;;5040665;28;20205;-82
2022/06/04 02:39:46;;;;;;;4.73;3.20;;;18.90;91.00;19.50;96505.00;;;;5034610;28;20804;-82
2022/06/04 02:42:24;;;;;;;5.27;3.40;;;18.90;91.00;19.50;96503.00;;;;5049854;28;20192;-82
2022/06/04 02:44:58;;;;;;;6.20;3.17;;;18.90;91.00;19.60;96508.00;;;;5054147;28;20571;-82
2022/06/04 02:47:33;;;;;;;5.23;3.17;;;18.90;91.10;19.60;96500.00;;;;5037884;28;20693;-82
2022/06/04 02:50:11;;;;;;;5.07;3.60;;;18.90;91.00;19.60;96512.00;;;;5034219;28;20255;-82
2022/06/04 02:52:40;;;;;;;10.27;3.73;;;19.00;91.10;19.60;96501.00;;;;5034063;28;20548;-82
2022/06/04 02:55:14;;;;;;;10.50;3.40;;;19.00;91.10;19.60;96502.00;;;;5041803;28;20208;-82
2022/06/04 02:57:50;;;;;;;8.63;3.33;;;19.00;91.00;19.60;96510.00;;;;5035820;28;20245;-84
2022/06/04 03:00:22;;;;;;;7.03;3.10;;;19.00;91.00;19.60;96512.00;;;;5033796;28;20665;-84
2022/06/04 03:02:52;;;;;;;4.27;2.90;;;19.00;91.00;19.60;96521.00;;;;5033801;28;20208;-84
2022/06/04 03:05:24;;;;;;;8.53;3.47;;;19.00;91.00;19.70;96524.00;;;;5038866;28;20251;-84
2022/06/04 03:08:04;;;;;;;6.30;3.43;;;19.00;91.00;19.70;96525.00;;;;5034038;28;20713;-84
2022/06/04 03:10:35;;;;;;;4.20;3.30;;;19.00;91.00;19.70;96524.00;;;;5050633;28;20185;-84
2022/06/04 03:13:02;;;;;;;4.93;3.23;;;19.00;91.00;19.70;96531.00;;;;5043170;28;20228;-84
2022/06/04 03:15:30;;;;;;;7.47;3.20;;;19.00;91.00;19.70;96526.00;;;;5035308;28;20271;-84
2022/06/04 03:18:00;;;;;;;7.30;3.67;;;19.00;91.00;19.70;96530.00;;;;5051500;28;20217;-85
2022/06/04 03:20:28;;;;;;;9.30;3.13;;;19.00;91.10;19.70;96529.00;;;;5051209;28;20212;-84
2022/06/04 03:22:56;;;;;;;8.07;3.67;;;19.10;91.10;19.70;96528.00;;;;5043754;28;20189;-84
2022/06/04 03:25:23;;;;;;;6.63;3.83;;;19.10;91.10;19.70;96529.00;;;;5043928;28;20208;-84
2022/06/04 03:27:51;;;;;;;4.03;3.33;;;19.10;91.10;19.70;96537.00;;;;5046120;28;20758;-83
2022/06/04 03:30:19;;;;;;;5.93;3.50;;;19.10;91.10;19.80;96537.00;;;;5032845;28;20209;-84
2022/06/04 03:32:46;;;;;;;4.30;4.00;;;19.10;91.20;19.80;96536.00;;;;5033689;28;20271;-84
2022/06/04 03:35:16;;;;;;;5.03;3.27;;;19.10;91.20;19.80;96539.00;;;;5053478;28;20200;-84
2022/06/04 03:37:43;;;;;;;3.77;3.57;;;19.10;91.10;19.80;96529.00;;;;5053305;28;20223;-86
2022/06/04 03:40:12;;;;;;;3.60;3.00;;;19.10;91.10;19.90;96537.00;;;;5049237;28;20522;-84
2022/06/04 03:42:40;;;;;;;3.00;2.80;;;19.20;91.20;19.90;96540.00;;;;5050192;28;20204;-84
2022/06/04 03:45:10;;;;;;;3.47;3.10;;;19.20;91.20;19.90;96542.00;;;;5052525;28;20955;-84
2022/06/04 03:47:38;;;;;;;3.30;3.10;;;19.20;91.20;19.90;96557.00;;;;5053439;28;20225;-86
2022/06/04 03:50:08;;;;;;;6.43;3.40;;;19.20;91.10;19.90;96551.00;;;;5035629;28;20201;-84
2022/06/04 03:52:37;;;;;;;8.40;2.90;;;19.20;91.10;19.90;96538.00;;;;5033690;28;20217;-84
2022/06/04 03:55:06;;;;;;;9.63;3.23;;;19.20;91.00;19.90;96542.00;;;;5040348;28;20204;-84
2022/06/04 03:57:41;;;;;;;3.00;2.80;;;19.30;91.00;19.90;96541.00;;;;5042073;28;20224;-84
2022/06/04 04:00:17;;;;;;;7.60;2.90;;;19.20;91.00;20.00;96541.00;;;;5032518;28;20221;-84
2022/06/04 04:02:49;;;;;;;7.40;2.80;;;19.30;91.00;20.00;96550.00;;;;5052183;28;20625;-84
2022/06/04 04:05:20;;;;;;;2.60;2.40;;;19.30;91.00;20.00;96543.00;;;;5051997;28;20198;-84
2022/06/04 04:07:50;;;;;;;5.10;2.60;;;19.30;91.10;20.00;96548.00;;;;5052843;28;20286;-84
2022/06/04 04:10:18;;;;;;;4.17;2.60;;;19.30;91.10;20.00;96543.00;;;;5040534;28;20208;-84
2022/06/04 04:12:46;;;;;;;2.63;2.40;;;19.30;91.00;20.00;96547.00;;;;5046007;28;20219;-84
2022/06/04 04:15:15;;;;;;;7.53;2.63;;;19.30;91.00;20.00;96542.00;;;;5047698;28;20210;-84
2022/06/04 04:17:43;;;;;;;6.00;2.40;;;19.30;91.00;20.00;96537.00;;;;5034770;28;20228;-84
2022/06/04 04:20:16;;;;;;;5.67;2.23;;;19.40;91.10;20.00;96535.00;;;;5052381;28;20197;-84
2022/06/04 04:22:45;;;;;;;4.33;2.23;;;19.30;91.00;20.00;96536.00;;;;5052823;28;20190;-84
2022/06/04 04:25:17;;;;;;;6.87;2.10;;;19.30;91.00;20.00;96543.00;;;;5043973;28;20204;-85
2022/06/04 04:27:45;;;;;;;4.70;2.00;;;19.30;91.00;20.00;96541.00;;;;5032637;28;20225;-84
2022/06/04 04:30:18;;;;;;;14.37;2.20;;;19.30;91.00;20.00;96537.00;;;;5032656;28;20201;-84
2022/06/04 04:32:46;;;;;;;8.40;2.50;;;19.40;91.00;20.10;96542.00;;;;5032567;28;20227;-84
2022/06/04 04:35:17;;;;;;;6.33;2.90;;;19.30;91.00;20.10;96542.00;;;;5032433;28;20201;-85
2022/06/04 04:37:44;;;;;;;7.07;2.77;;;19.30;91.00;20.10;96538.00;;;;5032333;28;20226;-84
2022/06/04 04:40:16;;;;;;;13.10;2.93;;;19.30;90.90;20.10;96539.00;;;;5032123;28;20253;-84
2022/06/04 04:42:44;;;;;;;12.73;4.00;;;19.30;90.90;20.10;96535.00;;;;5032708;28;20197;-84
2022/06/04 04:45:13;;;;;;;7.73;2.90;;;19.30;90.80;20.10;96535.00;;;;5032039;28;20204;-84
2022/06/04 04:47:43;;;;;;;11.10;3.33;;;19.30;90.80;20.10;96529.00;;;;5049431;28;20217;-84
2022/06/04 04:50:16;;;;;;;16.53;3.87;;;19.30;90.80;20.10;96532.00;;;;5043776;28;20209;-84
2022/06/04 04:52:44;;;;;;;8.13;4.50;;;19.30;90.80;20.10;96536.00;;;;5031583;28;20226;-84
2022/06/04 04:55:13;;;;;;;16.23;5.50;;;19.40;90.90;20.10;96541.00;;;;5039687;28;20224;-86
2022/06/04 04:57:40;;;;;;;5.97;4.43;;;19.40;91.00;20.10;96532.00;;;;5050758;28;20217;-84
2022/06/04 05:00:10;;;;;;;7.03;5.70;;;19.40;91.10;20.20;96534.00;;;;5052314;28;20335;-84
2022/06/04 05:02:38;;;;;;;4.67;4.27;;;19.40;91.30;20.20;96536.00;;;;5051211;28;20201;-84
2022/06/04 05:05:07;;;;;;;13.27;3.77;;;19.50;91.40;20.30;96534.00;;;;5031919;28;20212;-84
2022/06/04 05:07:34;;;;;;;3.93;3.60;;;19.50;91.40;20.30;96535.00;;;;5031658;28;20263;-84
2022/06/04 05:10:02;;;;;;;5.53;5.03;;;19.50;91.40;20.40;96530.00;;;;5044488;28;20205;-86
2022/06/04 05:12:31;;;;;;;10.30;6.37;;;19.60;91.20;20.40;96534.00;;;;5031567;28;20224;-84
2022/06/04 05:14:58;;;;;;;11.13;8.50;;;19.60;91.10;20.40;96525.00;;;;5031866;28;20281;-84
2022/06/04 05:17:26;;;;;;;10.27;8.77;;;19.60;91.20;20.40;96528.00;;;;5031625;28;20221;-83
2022/06/04 05:19:53;;;;;;;5.53;5.13;;;19.60;91.20;20.40;96538.00;;;;5032317;28;20193;-84
2022/06/04 05:22:21;;;;;;;5.03;4.63;;;19.60;91.20;20.50;96549.00;;;;5031607;28;20197;-84
2022/06/04 05:24:48;;;;;;;5.43;4.97;;;19.70;91.30;20.50;96550.00;;;;5036976;28;20200;-86
2022/06/04 05:27:16;;;;;;;5.33;4.93;;;19.70;91.50;20.60;96549.00;;;;5051380;28;20198;-84
2022/06/04 05:29:44;;;;;;;8.73;4.97;;;19.80;91.70;20.70;96546.00;;;;5042179;28;20223;-84
2022/06/04 05:32:12;;;;;;;5.20;4.80;;;19.80;91.80;20.80;96560.00;;;;5032015;28;20669;-84
2022/06/04 05:34:41;;;;;;;5.83;5.33;;;19.90;92.00;20.80;96560.00;;;;5031190;28;20220;-83
2022/06/04 05:37:09;;;;;;;5.27;4.83;;;20.00;92.00;20.90;96561.00;;;;5031215;28;20606;-84
2022/06/04 05:39:37;;;;;;;6.90;6.30;;;20.00;92.10;21.00;96560.00;;;;5031419;28;20207;-84
2022/06/04 05:42:07;;;;;;;6.23;5.67;;;20.10;92.10;21.10;96569.00;;;;5038536;28;20211;-84
2022/06/04 05:44:35;;;;;;;6.43;5.93;;;20.20;92.10;21.20;96561.00;;;;5042682;28;20817;-83
2022/06/04 05:47:05;;;;;;;6.67;6.07;;;20.20;92.10;21.30;96561.00;;;;5050575;28;20215;-83
2022/06/04 05:49:33;;;;;;;7.13;6.47;;;20.30;92.10;21.40;96560.00;;;;5050708;28;20199;-83
2022/06/04 05:52:00;;;;;;;6.60;5.93;;;20.40;92.20;21.50;96560.00;;;;5050204;28;20200;-84
2022/06/04 05:54:28;;;;;;;6.50;5.90;;;20.40;92.20;21.60;96560.00;;;;5050585;28;20223;-84
2022/06/04 05:56:55;;;;;;;6.00;5.50;;;20.50;92.20;21.60;96565.00;;;;5043528;28;20193;-83
2022/06/04 05:59:25;;;;;;;6.50;5.77;;;20.60;92.20;21.70;96562.00;;;;5030817;28;20232;-84
2022/06/04 06:01:53;;;;;;;6.77;5.97;;;20.70;92.20;21.80;96564.00;;;;5037721;28;20669;-84
2022/06/04 06:04:25;;;;;;;5.90;5.30;;;20.70;92.20;21.90;96564.00;;;;5055011;28;20543;-83
2022/06/04 06:06:58;;;;;;;6.23;5.53;;;20.80;92.30;22.00;96571.00;;;;5047963;28;20252;-83
2022/06/04 06:09:26;;;;;;;6.57;5.97;;;20.90;92.00;22.00;96584.00;;;;5048878;28;20807;-84
2022/06/04 06:11:55;;;;;;;5.10;4.70;;;20.90;91.70;22.00;96574.00;;;;5054609;28;20200;-84
2022/06/04 06:14:24;;;;;;;5.70;5.20;;;21.00;91.60;22.00;96582.00;;;;5054818;28;20220;-83
2022/06/04 06:16:53;;;;;;;6.53;5.93;;;21.00;91.50;22.00;96583.00;;;;5038065;28;20208;-83
2022/06/04 06:19:24;;;;;;;6.23;5.63;;;21.00;91.50;22.00;96580.00;;;;5034929;28;20229;-84
2022/06/04 06:21:52;;;;;;;5.03;4.53;;;21.00;91.30;22.00;96581.00;;;;5050888;28;20712;-83
2022/06/04 06:24:22;;;;;;;5.90;5.40;;;21.00;91.40;22.00;96579.00;;;;5055009;28;20702;-84
2022/06/04 06:26:53;;;;;;;6.63;5.97;;;21.10;91.70;22.10;96582.00;;;;5054988;28;20698;-84
2022/06/04 06:29:24;;;;;;;6.60;6.10;;;21.10;91.90;22.20;96586.00;;;;5053095;28;20271;-83
2022/06/04 06:31:52;;;;;;;5.03;4.63;;;21.20;92.10;22.30;96582.00;;;;5034809;28;20192;-84
2022/06/04 06:34:21;;;;;;;4.27;3.97;;;21.20;92.30;22.40;96583.00;;;;5034617;28;20232;-84
2022/06/04 06:36:49;;;;;;;3.40;3.20;;;21.30;92.40;22.50;96585.00;;;;5034397;28;20666;-83
2022/06/04 06:39:17;;;;;;;2.97;2.77;;;21.40;92.50;22.60;96594.00;;;;5034916;28;20225;-84
2022/06/04 06:41:46;;;;;;;3.10;2.90;;;21.50;92.50;22.70;96600.00;;;;5047947;28;20297;-84
2022/06/04 06:44:14;;;;;;;4.33;2.87;;;21.60;92.40;22.70;96605.00;;;;5034870;28;20211;-84
2022/06/04 06:46:44;;;;;;;2.73;2.53;;;21.60;92.30;22.80;96603.00;;;;5035829;28;20291;-83
2022/06/04 06:49:17;;;;;;;2.73;2.53;;;21.70;92.30;22.90;96618.00;;;;5034523;28;20327;-84
2022/06/04 06:51:49;;;;;;;3.27;2.60;;;21.80;92.20;22.90;96620.00;;;;5035728;28;20201;-84
2022/06/04 06:54:20;;;;;;;2.33;2.23;;;21.80;92.00;22.90;96627.00;;;;5055247;28;20621;-84
2022/06/04 06:56:52;;;;;;;2.30;2.20;;;21.90;91.90;22.90;96621.00;;;;5066727;28;20202;-84
2022/06/04 06:59:21;;;;;;;2.20;2.10;;;21.90;91.70;23.00;96618.00;;;;5053329;28;20220;-84
2022/06/04 07:01:50;;;;;;;2.10;2.00;;;21.90;91.70;23.00;96617.00;;;;5052730;28;20204;-84
2022/06/04 07:04:18;;;;;;;2.57;2.47;;;22.00;91.70;23.00;96627.00;;;;5033783;28;20198;-84
2022/06/04 07:06:50;;;;;;;2.40;2.20;;;22.00;91.70;23.00;96619.00;;;;5033521;28;20194;-84
2022/06/04 07:09:22;;;;;;;2.50;2.33;;;22.00;91.70;23.00;96626.00;;;;5034080;28;20691;-84
2022/06/04 07:11:51;;;;;;;2.83;2.63;;;22.00;91.70;23.00;96631.00;;;;5039877;28;20219;-83
2022/06/04 07:14:20;;;;;;;3.07;2.87;;;22.00;91.70;23.00;96631.00;;;;5053059;28;20228;-84
2022/06/04 07:16:48;;;;;;;2.93;2.73;;;22.10;91.50;23.00;96632.00;;;;5052449;28;20247;-84
2022/06/04 07:19:17;;;;;;;2.83;2.70;;;22.10;91.40;23.00;96632.00;;;;5053432;28;20224;-84
2022/06/04 07:21:46;;;;;;;3.00;2.80;;;22.10;91.50;23.00;96633.00;;;;5052900;28;20220;-84
2022/06/04 07:24:13;;;;;;;2.83;2.43;;;22.10;91.50;23.00;96633.00;;;;5053477;28;20207;-83
2022/06/04 07:26:42;;;;;;;2.83;2.63;;;22.10;91.50;23.00;96637.00;;;;5053041;28;20268;-83
2022/06/04 07:29:12;;;;;;;3.27;2.90;;;22.10;91.50;23.10;96628.00;;;;5040271;28;20342;-83
2022/06/04 07:31:40;;;;;;;2.87;2.67;;;22.10;91.60;23.10;96635.00;;;;5033943;28;20206;-84
2022/06/04 07:34:08;;;;;;;2.97;2.67;;;22.10;91.70;23.20;96647.00;;;;5044942;28;20260;-84
2022/06/04 07:36:44;;;;;;;2.73;2.50;;;22.20;91.80;23.30;96650.00;;;;5044952;28;20214;-84
2022/06/04 07:39:17;;;;;;;2.77;2.60;;;22.20;91.90;23.30;96668.00;;;;5053098;28;20225;-85
2022/06/04 07:41:47;;;;;;;2.87;2.67;;;22.30;92.00;23.40;96682.00;;;;5053608;28;20209;-83
2022/06/04 07:44:17;;;;;;;3.03;2.83;;;22.30;92.10;23.50;96710.00;;;;5051533;28;20229;-83
2022/06/04 07:46:48;;;;;;;3.20;2.87;;;22.30;92.10;23.50;96730.00;;;;5052528;28;20207;-84
2022/06/04 07:49:16;;;;;;;3.17;2.87;;;22.40;92.10;23.50;96715.00;;;;5048275;28;20228;-84
2022/06/04 07:51:45;;;;;;;2.87;2.67;;;22.50;92.20;23.60;96705.00;;;;5047753;28;20637;-84
2022/06/04 07:54:18;;;;;;;3.50;3.20;;;22.50;92.30;23.70;96730.00;;;;5053141;28;20241;-84
2022/06/04 07:56:45;;;;;;;2.83;2.63;;;22.60;92.40;23.70;96719.00;;;;5073236;28;20650;-84
2022/06/04 07:59:16;;;;;;;2.63;2.53;;;22.60;92.30;23.70;96717.00;;;;5059449;28;20234;-84
2022/06/04 08:01:50;;;;;;;2.70;2.50;;;22.70;92.20;23.70;96712.00;;;;5036258;28;20187;-84
2022/06/04 08:04:18;;;;;;;2.30;2.10;;;22.70;92.10;23.80;96710.00;;;;5033063;28;20205;-84
2022/06/04 08:06:45;;;;;;;2.73;2.53;;;22.80;92.10;23.80;96699.00;;;;5036207;28;20681;-85
2022/06/04 08:09:14;;;;;;;2.30;2.20;;;22.80;92.30;23.80;96689.00;;;;5072811;28;20582;-84
2022/06/04 08:11:42;;;;;;;2.20;2.10;;;22.80;92.10;23.90;96689.00;;;;5061070;28;20209;-84
2022/06/04 08:14:17;;;;;;;2.03;1.93;;;22.80;92.20;24.00;96681.00;;;;5044025;28;20220;-84
2022/06/04 08:16:51;;;;;;;2.40;2.20;;;22.90;92.10;24.10;96659.00;;;;5051862;28;20193;-84
2022/06/04 08:19:19;;;;;;;2.40;2.20;;;23.00;92.20;24.20;96668.00;;;;5052968;28;20214;-83
2022/06/04 08:21:47;;;;;;;2.33;2.13;;;23.10;92.40;24.30;96649.00;;;;5044458;28;20219;-84
2022/06/04 08:24:18;;;;;;;2.30;1.90;;;23.10;92.50;24.40;96646.00;;;;5033569;28;20208;-84
2022/06/04 08:26:53;;;;;;;2.27;2.07;;;23.20;92.60;24.60;96644.00;;;;5037781;28;20202;-84
2022/06/04 08:29:22;;;;;;;1.90;1.80;;;23.30;92.60;24.60;96632.00;;;;5032040;28;20216;-83
2022/06/04 08:31:49;;;;;;;1.67;1.57;;;23.40;92.40;24.70;96630.00;;;;5040501;28;20649;-83
2022/06/04 08:34:17;;;;;;;1.80;1.70;;;23.50;92.40;24.80;96647.00;;;;5047302;28;20225;-84
2022/06/04 08:36:44;;;;;;;1.93;1.70;;;23.50;92.30;24.90;96648.00;;;;5051903;28;20204;-85
2022/06/04 08:39:12;;;;;;;1.90;1.40;;;23.60;92.30;25.00;96648.00;;;;5033816;28;20213;-85
2022/06/04 08:42:13;;;;;;;1.90;1.80;;;23.70;92.40;25.10;96646.00;;;;5031898;28;20208;-85
2022/06/04 08:44:44;;;;;;;1.60;1.50;;;23.80;92.10;25.20;96638.00;;;;5031983;28;20565;-86
2022/06/04 08:47:18;;;;;;;2.97;1.50;;;23.90;92.10;25.30;96642.00;;;;5031930;28;20586;-85
2022/06/04 08:49:49;;;;;;;1.17;1.17;;;23.90;91.90;25.30;96633.00;;;;5032075;28;20212;-86
2022/06/04 08:52:22;;;;;;;2.50;1.33;;;24.00;91.70;25.30;96634.00;;;;5037604;28;20203;-86
2022/06/04 08:57:50;;;;;;;1.20;1.20;;;24.10;91.20;25.30;96626.00;;;;5070978;28;20261;-85
2022/06/04 09:00:25;;;;;;;1.67;1.27;;;24.10;91.10;25.40;96621.00;;;;5071997;28;20199;-85
2022/06/04 09:03:14;;;;;;;1.60;1.50;;;24.10;91.20;25.50;96614.00;;;;5048626;28;20215;-85
2022/06/04 09:06:19;;;;;;;1.23;1.13;;;24.20;90.80;25.60;96614.00;;;;5049096;28;20216;-84
2022/06/04 09:08:58;;;;;;;1.17;1.07;;;24.20;90.70;25.60;96608.00;;;;5049988;28;20746;-85
2022/06/04 09:11:37;;;;;;;1.20;1.10;;;24.30;91.20;25.60;96602.00;;;;5050483;28;20199;-85
2022/06/04 09:14:30;;;;;;;1.53;1.43;;;24.30;91.00;25.60;96611.00;;;;5050799;28;20224;-84
2022/06/04 09:17:03;;;;;;;1.30;1.20;;;24.30;90.50;25.60;96613.00;;;;5051170;28;20235;-85
2022/06/04 09:19:36;;;;;;;1.30;1.20;;;24.40;90.90;25.60;96630.00;;;;5051310;28;20188;-84
2022/06/04 09:22:14;;;;;;;1.30;1.20;;;24.40;90.90;25.60;96646.00;;;;5051611;28;20204;-84
2022/06/04 09:24:42;;;;;;;1.83;1.63;;;24.40;91.00;25.70;96663.00;;;;5051478;28;20602;-84
2022/06/04 09:27:28;;;;;;;3.27;1.87;;;24.40;91.00;25.70;96647.00;;;;5051557;28;20211;-84
2022/06/04 09:30:22;;;;;;;1.60;1.50;;;24.50;90.90;25.80;96647.00;;;;5051812;28;20264;-84
2022/06/04 09:33:19;;;;;;;1.83;1.50;;;24.50;90.30;25.80;96661.00;;;;5050113;28;20511;-84
2022/06/04 09:35:47;;;;;;;1.40;1.30;;;24.50;90.40;25.90;96659.00;;;;5050174;28;20192;-84
2022/06/04 09:38:27;;;;;;;1.40;1.30;;;24.60;90.70;25.90;96656.00;;;;5049802;28;20213;-84
2022/06/04 09:41:02;;;;;;;2.30;1.57;;;24.60;90.20;26.00;96653.00;;;;5051204;28;20208;-84
2022/06/04 09:43:30;;;;;;;2.10;1.30;;;24.70;90.70;26.10;96655.00;;;;5050116;28;20663;-84
2022/06/04 09:46:02;;;;;;;2.33;1.43;;;24.70;91.20;26.20;96649.00;;;;5050937;28;20208;-84
2022/06/04 09:48:33;;;;;;;2.93;1.37;;;24.90;91.30;26.50;96644.00;;;;5049947;28;20322;-84
2022/06/04 09:51:05;;;;;;;1.90;1.80;;;25.10;92.50;27.00;96646.00;;;;5051855;28;20197;-84
2022/06/04 09:53:42;;;;;;;1.93;1.83;;;25.40;93.60;27.40;96651.00;;;;5050619;28;20208;-85
2022/06/04 09:56:14;;;;;;;4.03;1.53;;;25.80;94.10;27.70;96652.00;;;;5050278;28;20560;-85
2022/06/04 09:58:45;;;;;;;1.58;1.48;;;26.20;93.40;28.10;96644.00;;;;5051261;28;20220;-85
2022/06/04 10:01:25;;;;;;;2.28;1.42;;;26.70;94.00;28.50;96650.00;;;;5051363;28;20205;-84
2022/06/04 10:04:03;;;;;;;1.45;1.35;;;27.20;93.30;28.80;96652.00;;;;5051220;28;20625;-85
2022/06/04 10:06:31;;;;;;;1.25;1.10;;;27.60;91.60;29.00;96658.00;;;;5050454;28;20671;-85
2022/06/04 10:11:52;;;;;;;1.80;1.27;;;28.20;90.40;29.30;96664.00;;;;5051330;28;20240;-85
2022/06/04 10:14:31;;;;;;;1.58;1.17;;;28.50;89.50;29.40;96671.00;;;;5050316;28;20235;-86
2022/06/04 10:17:02;;;;;;;1.00;1.00;;;28.70;87.30;29.70;96670.00;;;;5050847;28;20250;-85
2022/06/04 10:19:31;;;;;;;1.30;1.30;;;29.00;87.50;29.80;96666.00;;;;5050611;28;20200;-85
2022/06/04 10:22:14;;;;;;;1.27;1.20;;;29.20;87.70;30.10;96664.00;;;;5050762;28;20232;-85
2022/06/04 10:24:51;;;;;;;1.55;1.30;;;29.50;83.50;30.30;96666.00;;;;5049972;28;20204;-85
2022/06/04 10:27:42;;;;;;;1.50;1.40;;;29.70;83.80;30.50;96651.00;;;;5050655;28;20189;-85
2022/06/04 10:30:24;;;;;;;4.63;1.40;;;29.90;82.40;30.70;96651.00;;;;5050507;28;20204;-85
2022/06/04 10:33:12;;;;;;;1.10;1.00;;;30.20;80.40;30.80;96655.00;;;;5030656;28;20185;-82
2022/06/04 10:36:02;;;;;;;1.48;1.38;;;30.30;79.00;30.90;96655.00;;;;5030741;28;20653;-84
2022/06/04 10:38:50;;;;;;;1.73;1.33;;;30.40;75.90;30.80;96649.00;;;;5030755;28;20264;-84
2022/06/04 10:41:35;;;;;;;1.30;1.20;;;30.30;74.10;30.70;96641.00;;;;5030053;28;20198;-84
2022/06/04 10:44:53;;;;;;;1.40;1.30;;;30.30;75.40;30.60;96643.00;;;;5039213;28;20204;-84
2022/06/04 10:47:31;;;;;;;1.27;1.17;;;30.30;72.80;30.60;96639.00;;;;5050722;28;20240;-84
2022/06/04 10:51:25;;;;;;;1.80;1.17;;;30.30;76.00;30.50;96643.00;;;;5051511;28;20208;-84
2022/06/04 10:53:43;;;;;;;3.72;1.60;;;30.20;75.10;30.50;96650.00;;;;5053669;28;20211;-85
2022/06/04 10:56:19;;;;;;;1.30;1.30;;;30.20;75.20;30.40;96653.00;;;;5053846;28;20215;-84
2022/06/04 10:58:55;;;;;;;2.05;1.50;;;30.10;74.90;30.30;96649.00;;;;5053426;28;20286;-85
2022/06/04 11:01:31;;;;;;;1.33;1.15;;;30.00;76.40;30.30;96647.00;;;;5054212;28;20620;-85
2022/06/04 11:04:25;;;;;;;1.92;1.40;;;29.90;74.80;30.20;96641.00;;;;5054189;28;20200;-85
2022/06/04 11:07:06;;;;;;;1.48;1.30;;;29.70;73.70;30.10;96635.00;;;;5053175;28;20208;-85
2022/06/04 11:09:38;;;;;;;1.48;1.30;;;29.60;74.60;30.00;96630.00;;;;5053902;28;20204;-84
2022/06/04 11:12:35;;;;;;;1.50;1.40;;;29.40;73.50;29.90;96633.00;;;;5052701;28;20574;-84
2022/06/04 11:15:16;;;;;;;1.65;1.10;;;29.30;69.60;29.80;96627.00;;;;5049360;28;20205;-84
2022/06/04 11:17:49;;;;;;;1.38;1.27;;;29.10;73.80;29.70;96627.00;;;;5052017;28;20678;-84
2022/06/04 11:20:23;;;;;;;3.22;1.45;;;28.90;72.30;29.50;96623.00;;;;5053116;28;20195;-85
2022/06/04 11:23:15;;;;;;;1.73;1.50;;;28.80;73.60;29.30;96620.00;;;;5053340;28;20211;-85
2022/06/04 11:25:49;;;;;;;1.30;1.20;;;28.60;72.60;29.10;96619.00;;;;5052273;28;20244;-85
2022/06/04 11:28:24;;;;;;;2.88;1.80;;;28.50;73.20;29.00;96614.00;;;;5052991;28;20220;-85
2022/06/04 11:31:07;;;;;;;1.70;1.52;;;28.30;72.50;28.80;96621.00;;;;5053257;28;20719;-85
2022/06/04 11:33:54;;;;;;;1.58;1.48;;;28.10;71.80;28.70;96614.00;;;;5053367;28;20208;-85
2022/06/04 11:36:35;;;;;;;1.60;1.50;;;28.00;72.20;28.50;96618.00;;;;5052703;28;20193;-84
2022/06/04 11:39:31;;;;;;;2.30;1.60;;;27.90;73.50;28.40;96614.00;;;;5053098;28;20220;-84